createdAt,value
2019-01-13T00:00:43.560Z,-3.83
2019-01-13T00:03:13.255Z,-3.77
2019-01-13T00:05:42.959Z,-3.83
2019-01-13T00:08:12.408Z,-3.78
2019-01-13T00:28:04.939Z,-3.83
2019-01-13T00:30:34.632Z,-3.85
2019-01-13T00:33:04.011Z,-3.91
2019-01-13T00:35:33.844Z,-3.88
2019-01-13T00:38:04.220Z,-3.77
2019-01-13T00:40:33.808Z,-3.81
2019-01-13T00:43:03.196Z,-3.88
2019-01-13T00:45:32.790Z,-4.03
2019-01-13T00:48:02.447Z,-4.28
2019-01-13T00:50:32.157Z,-4.12
2019-01-13T00:53:01.901Z,-4.00
2019-01-13T00:55:31.492Z,-3.91
2019-01-13T00:58:01.125Z,-3.97
2019-01-13T01:00:30.932Z,-3.91
2019-01-13T01:03:01.485Z,-3.77
2019-01-13T01:05:31.101Z,-3.78
2019-01-13T01:08:00.635Z,-3.75
2019-01-13T01:10:30.299Z,-3.75
2019-01-13T01:12:59.667Z,-3.70
2019-01-13T01:15:29.216Z,-3.69
2019-01-13T01:17:58.773Z,-3.67
2019-01-13T01:37:50.911Z,-4.34
2019-01-13T01:40:21.691Z,-4.23
2019-01-13T01:42:51.440Z,-4.16
2019-01-13T01:45:21.739Z,-3.99
2019-01-13T01:47:51.366Z,-3.90
2019-01-13T01:50:21.042Z,-3.82
2019-01-13T01:52:50.647Z,-3.82
2019-01-13T02:12:42.527Z,-3.63
2019-01-13T02:15:15.484Z,-3.63
2019-01-13T02:17:45.360Z,-3.62
2019-01-13T02:20:16.067Z,-3.64
2019-01-13T02:22:45.843Z,-3.61
2019-01-13T02:25:16.815Z,-3.56
2019-01-13T02:27:46.270Z,-3.53
2019-01-13T02:47:37.260Z,-3.91
2019-01-13T02:50:06.964Z,-3.86
2019-01-13T03:09:59.205Z,-3.42
2019-01-13T03:12:28.980Z,-3.46
2019-01-13T03:14:58.519Z,-3.48
2019-01-13T03:17:27.995Z,-3.37
2019-01-13T03:19:57.588Z,-3.32
2019-01-13T03:22:27.276Z,-3.32
2019-01-13T03:24:56.972Z,-3.39
2019-01-13T03:27:26.780Z,-3.34
2019-01-13T03:29:56.277Z,-3.33
2019-01-13T03:49:47.434Z,-3.19
2019-01-13T03:52:17.135Z,-3.23
2019-01-13T03:54:46.880Z,-3.13
2019-01-13T03:57:16.662Z,-3.18
2019-01-13T03:59:46.257Z,-3.11
2019-01-13T04:02:16.408Z,-3.36
2019-01-13T04:22:08.541Z,-3.38
2019-01-13T04:24:38.151Z,-3.40
2019-01-13T04:29:45.316Z,-3.32
2019-01-13T04:32:14.861Z,-3.30
2019-01-13T04:34:44.472Z,-3.19
2019-01-13T04:37:13.990Z,-3.27
2019-01-13T04:39:43.547Z,-3.25
2019-01-13T04:42:13.314Z,-3.21
2019-01-13T04:44:42.808Z,-3.26
2019-01-13T04:47:12.278Z,-3.28
2019-01-13T04:49:41.599Z,-3.26
2019-01-13T04:52:11.412Z,-3.25
2019-01-13T04:54:41.136Z,-3.29
2019-01-13T04:57:11.356Z,-3.12
2019-01-13T04:59:41.067Z,-3.29
2019-01-13T05:02:10.656Z,-3.11
2019-01-13T05:04:40.400Z,-3.18
2019-01-13T05:07:09.874Z,-3.26
2019-01-13T05:09:39.964Z,-3.39
2019-01-13T05:12:10.039Z,-3.37
2019-01-13T05:14:39.621Z,-3.32
2019-01-13T05:17:09.351Z,-3.26
2019-01-13T05:19:39.075Z,-3.30
2019-01-13T05:22:08.762Z,-3.29
2019-01-13T05:24:38.478Z,-3.24
2019-01-13T05:27:08.172Z,-3.27
2019-01-13T05:29:37.573Z,-3.19
2019-01-13T05:32:07.212Z,-3.17
2019-01-13T05:34:36.724Z,-3.18
2019-01-13T05:37:06.115Z,-3.11
2019-01-13T05:39:35.825Z,-3.21
2019-01-13T05:42:05.307Z,-3.19
2019-01-13T05:44:35.036Z,-3.19
2019-01-13T05:47:04.597Z,-3.21
2019-01-13T05:49:34.181Z,-3.22
2019-01-13T05:52:03.549Z,-3.17
2019-01-13T05:54:33.234Z,-3.19
2019-01-13T05:57:02.899Z,-3.03
2019-01-13T05:59:32.576Z,-3.33
2019-01-13T06:02:02.011Z,-3.32
2019-01-13T06:04:31.807Z,-3.43
2019-01-13T06:07:01.598Z,-3.49
2019-01-13T06:09:31.308Z,-3.36
2019-01-13T06:12:00.978Z,-3.24
2019-01-13T06:14:30.619Z,-3.16
2019-01-13T06:17:00.620Z,-3.08
2019-01-13T06:19:30.251Z,-3.02
2019-01-13T06:21:59.848Z,-3.14
2019-01-13T06:24:29.497Z,-3.18
2019-01-13T06:26:58.975Z,-3.12
2019-01-13T06:29:28.588Z,-3.08
2019-01-13T06:31:58.430Z,-2.91
2019-01-13T06:34:28.151Z,-3.39
2019-01-13T06:36:57.613Z,-3.30
2019-01-13T06:39:27.416Z,-3.11
2019-01-13T06:41:56.928Z,-2.92
2019-01-13T06:44:26.466Z,-2.84
2019-01-13T06:46:56.343Z,-2.90
2019-01-13T06:49:26.017Z,-2.88
2019-01-13T06:51:56.260Z,-2.80
2019-01-13T06:54:26.218Z,-2.78
2019-01-13T06:56:55.875Z,-2.80
2019-01-13T06:59:25.470Z,-2.85
2019-01-13T07:01:55.153Z,-2.87
2019-01-13T07:04:24.861Z,-2.69
2019-01-13T07:06:54.628Z,-2.70
2019-01-13T07:09:24.732Z,-2.84
2019-01-13T07:11:54.768Z,-2.71
2019-01-13T07:14:24.738Z,-2.66
2019-01-13T07:16:54.199Z,-2.67
2019-01-13T07:19:25.043Z,-2.69
2019-01-13T07:21:54.821Z,-2.75
2019-01-13T07:24:24.371Z,-2.69
2019-01-13T07:26:54.037Z,-2.60
2019-01-13T07:29:23.688Z,-2.50
2019-01-13T07:31:53.262Z,-2.61
2019-01-13T07:34:22.701Z,-2.57
2019-01-13T07:36:52.404Z,-2.39
2019-01-13T07:39:22.139Z,-2.51
2019-01-13T07:41:51.820Z,-2.54
2019-01-13T07:44:21.595Z,-2.42
2019-01-13T07:46:51.409Z,-2.55
2019-01-13T07:49:21.167Z,-2.56
2019-01-13T07:51:52.599Z,-2.46
2019-01-13T07:54:24.530Z,-2.48
2019-01-13T07:56:54.321Z,-2.13
2019-01-13T07:59:23.932Z,-2.08
2019-01-13T08:01:53.785Z,-2.03
2019-01-13T08:04:23.537Z,-2.24
2019-01-13T08:06:53.319Z,-2.07
2019-01-13T08:09:22.766Z,-2.04
2019-01-13T08:11:52.565Z,-1.98
2019-01-13T08:14:22.158Z,-1.97
2019-01-13T08:16:51.909Z,-1.93
2019-01-13T08:19:22.442Z,-1.86
2019-01-13T08:21:51.997Z,-1.87
2019-01-13T08:24:21.807Z,-1.85
2019-01-13T08:26:51.562Z,-1.73
2019-01-13T08:29:22.050Z,-1.78
2019-01-13T08:31:51.793Z,-1.79
2019-01-13T08:34:21.774Z,-1.79
2019-01-13T08:36:51.287Z,-1.92
2019-01-13T08:39:20.821Z,-1.71
2019-01-13T08:41:50.739Z,-1.94
2019-01-13T08:44:20.329Z,-2.08
2019-01-13T08:46:50.829Z,-2.04
2019-01-13T08:49:20.578Z,-1.70
2019-01-13T08:51:50.415Z,-1.66
2019-01-13T08:54:20.314Z,-1.56
2019-01-13T08:56:49.976Z,-1.37
2019-01-13T08:59:19.477Z,-1.40
2019-01-13T09:01:49.472Z,-1.41
2019-01-13T09:04:19.361Z,-1.44
2019-01-13T09:06:49.075Z,-1.51
2019-01-13T09:09:18.870Z,-1.41
2019-01-13T09:11:48.435Z,-1.33
2019-01-13T09:14:18.273Z,-1.09
2019-01-13T09:16:48.069Z,-0.99
2019-01-13T09:20:20.820Z,-0.98
2019-01-13T09:22:50.460Z,-1.00
2019-01-13T09:25:20.571Z,-0.55
2019-01-13T09:27:50.464Z,-0.04
2019-01-13T09:30:22.830Z,0.56
2019-01-13T09:32:52.541Z,0.97
2019-01-13T09:35:22.318Z,1.53
2019-01-13T09:37:52.323Z,0.78
2019-01-13T09:40:24.904Z,0.70
2019-01-13T09:42:54.705Z,0.77
2019-01-13T09:45:24.595Z,0.71
2019-01-13T09:47:54.159Z,1.01
2019-01-13T09:50:23.979Z,1.23
2019-01-13T09:52:53.775Z,0.98
2019-01-13T09:55:23.981Z,0.74
2019-01-13T09:57:53.563Z,0.71
2019-01-13T10:00:25.531Z,0.89
2019-01-13T10:02:55.237Z,1.51
2019-01-13T10:05:24.831Z,2.40
2019-01-13T10:07:54.750Z,2.97
2019-01-13T10:10:24.259Z,3.08
2019-01-13T10:12:54.473Z,3.29
2019-01-13T10:15:23.939Z,3.34
2019-01-13T10:17:53.604Z,3.26
2019-01-13T10:20:23.407Z,3.60
2019-01-13T10:22:53.072Z,3.48
2019-01-13T10:25:22.619Z,3.05
2019-01-13T10:27:52.103Z,2.84
2019-01-13T10:30:27.007Z,3.06
2019-01-13T10:32:56.545Z,3.06
2019-01-13T10:35:26.298Z,3.22
2019-01-13T10:37:55.958Z,3.19
2019-01-13T10:40:27.636Z,3.26
2019-01-13T10:42:57.397Z,3.01
2019-01-13T10:45:27.608Z,2.98
2019-01-13T10:47:57.715Z,2.86
2019-01-13T10:50:29.752Z,3.32
2019-01-13T10:53:01.860Z,3.41
2019-01-13T10:55:32.030Z,3.61
2019-01-13T10:58:01.831Z,3.41
2019-01-13T11:00:35.303Z,3.18
2019-01-13T11:03:12.280Z,3.09
2019-01-13T11:05:42.924Z,3.22
2019-01-13T11:08:12.495Z,3.15
2019-01-13T11:10:42.243Z,2.85
2019-01-13T11:13:11.886Z,2.84
2019-01-13T11:15:41.595Z,3.12
2019-01-13T11:18:11.464Z,3.12
2019-01-13T11:20:41.419Z,3.26
2019-01-13T11:23:11.826Z,3.43
2019-01-13T11:25:41.536Z,3.65
2019-01-13T11:28:11.383Z,4.02
2019-01-13T11:30:41.065Z,3.93
2019-01-13T11:33:10.661Z,4.11
2019-01-13T11:35:40.383Z,4.57
2019-01-13T11:38:10.789Z,4.58
2019-01-13T11:40:40.446Z,4.62
2019-01-13T11:43:11.246Z,4.61
2019-01-13T11:45:39.691Z,4.46
2019-01-13T11:48:09.388Z,4.11
2019-01-13T11:50:38.996Z,3.85
2019-01-13T11:53:08.452Z,3.39
2019-01-13T11:55:38.387Z,2.89
2019-01-13T11:58:07.972Z,2.64
2019-01-13T12:00:42.802Z,2.54
2019-01-13T12:03:16.831Z,2.34
2019-01-13T12:05:42.534Z,2.16
2019-01-13T12:08:12.580Z,2.11
2019-01-13T12:10:42.076Z,2.00
2019-01-13T12:13:11.643Z,1.83
2019-01-13T12:15:41.120Z,1.87
2019-01-13T12:18:10.692Z,1.87
2019-01-13T12:20:40.131Z,1.94
2019-01-13T12:23:09.875Z,1.86
2019-01-13T12:25:39.426Z,1.70
2019-01-13T12:28:09.283Z,1.68
2019-01-13T12:30:38.780Z,1.48
2019-01-13T12:33:08.517Z,1.60
2019-01-13T12:35:38.211Z,1.49
2019-01-13T12:38:08.038Z,1.47
2019-01-13T12:40:37.776Z,1.47
2019-01-13T12:43:07.820Z,1.49
2019-01-13T12:45:37.984Z,1.40
2019-01-13T12:48:07.602Z,1.40
2019-01-13T12:50:37.165Z,1.40
2019-01-13T12:53:06.523Z,0.99
2019-01-13T12:55:36.132Z,0.49
2019-01-13T12:58:05.774Z,0.69
2019-01-13T13:00:35.599Z,0.85
2019-01-13T13:03:04.987Z,1.08
2019-01-13T13:05:34.554Z,1.20
2019-01-13T13:08:04.073Z,1.31
2019-01-13T13:10:39.923Z,1.34
2019-01-13T13:13:09.592Z,1.29
2019-01-13T13:15:39.031Z,1.25
2019-01-13T13:18:08.570Z,1.19
2019-01-13T13:20:38.343Z,1.13
2019-01-13T13:23:08.033Z,1.37
2019-01-13T13:25:37.339Z,1.44
2019-01-13T13:28:07.291Z,1.42
2019-01-13T13:30:37.087Z,1.39
2019-01-13T13:33:06.734Z,1.38
2019-01-13T13:35:40.035Z,1.42
2019-01-13T13:38:06.172Z,1.40
2019-01-13T13:40:35.598Z,1.36
2019-01-13T13:43:05.332Z,1.44
2019-01-13T13:45:34.982Z,1.42
2019-01-13T13:48:04.562Z,1.45
2019-01-13T13:50:34.203Z,1.41
2019-01-13T13:53:03.771Z,1.31
2019-01-13T13:55:33.586Z,1.31
2019-01-13T13:58:03.301Z,1.29
2019-01-13T14:00:35.088Z,1.29
2019-01-13T14:03:05.091Z,1.19
2019-01-13T14:05:35.043Z,1.00
2019-01-13T14:08:04.551Z,1.04
2019-01-13T14:10:38.689Z,1.17
2019-01-13T14:13:08.519Z,1.17
2019-01-13T14:15:38.157Z,1.16
2019-01-13T14:18:07.711Z,0.94
2019-01-13T14:20:37.542Z,0.95
2019-01-13T14:23:07.232Z,0.88
2019-01-13T14:25:36.835Z,0.68
2019-01-13T14:28:06.579Z,0.82
2019-01-13T14:30:36.182Z,0.72
2019-01-13T14:33:05.690Z,0.78
2019-01-13T14:35:35.459Z,0.71
2019-01-13T14:38:05.039Z,0.61
2019-01-13T14:40:34.689Z,0.78
2019-01-13T14:43:04.229Z,0.74
2019-01-13T14:45:33.787Z,0.58
2019-01-13T14:48:03.182Z,0.56
2019-01-13T14:50:33.836Z,0.61
2019-01-13T14:53:03.928Z,0.67
2019-01-13T14:55:33.860Z,0.70
2019-01-13T14:58:03.315Z,0.59
2019-01-13T15:00:33.536Z,0.50
2019-01-13T15:03:03.329Z,0.51
2019-01-13T15:05:33.200Z,0.51
2019-01-13T15:08:02.772Z,0.45
2019-01-13T15:10:32.578Z,0.51
2019-01-13T15:13:02.064Z,0.50
2019-01-13T15:15:31.728Z,0.48
2019-01-13T15:18:01.224Z,0.37
2019-01-13T15:20:31.622Z,0.47
2019-01-13T15:23:01.561Z,0.43
2019-01-13T15:25:31.670Z,0.46
2019-01-13T15:28:01.337Z,0.48
2019-01-13T15:30:34.056Z,0.24
2019-01-13T15:33:05.408Z,0.30
2019-01-13T15:35:35.314Z,0.36
2019-01-13T15:38:05.188Z,0.38
2019-01-13T15:40:35.048Z,0.28
2019-01-13T15:43:05.583Z,0.24
2019-01-13T15:45:35.087Z,0.33
2019-01-13T15:48:05.340Z,0.20
2019-01-13T15:50:34.893Z,0.28
2019-01-13T15:53:04.333Z,0.42
2019-01-13T15:55:33.959Z,0.45
2019-01-13T15:58:03.284Z,0.38
2019-01-13T16:00:34.753Z,0.38
2019-01-13T16:03:05.357Z,-0.28
2019-01-13T16:05:35.191Z,0.33
2019-01-13T16:08:04.681Z,0.13
2019-01-13T16:10:34.135Z,0.15
2019-01-13T16:13:03.603Z,0.18
2019-01-13T16:15:34.658Z,0.22
2019-01-13T16:18:10.294Z,0.23
2019-01-13T16:20:41.374Z,0.22
2019-01-13T16:23:11.407Z,-0.01
2019-01-13T16:25:41.266Z,0.05
2019-01-13T16:28:11.321Z,0.10
2019-01-13T16:30:41.116Z,0.08
2019-01-13T16:33:10.650Z,-0.10
2019-01-13T16:35:40.326Z,-0.51
2019-01-13T16:38:10.859Z,-0.13
2019-01-13T16:40:40.881Z,-0.24
2019-01-13T16:43:10.499Z,-0.19
2019-01-13T16:45:40.254Z,-0.15
2019-01-13T16:48:09.896Z,-0.24
2019-01-13T16:50:39.402Z,-0.12
2019-01-13T16:53:10.087Z,-0.05
2019-01-13T16:55:40.057Z,0.06
2019-01-13T16:58:09.729Z,0.10
2019-01-13T17:00:39.690Z,0.18
2019-01-13T17:03:09.462Z,0.15
2019-01-13T17:05:39.051Z,0.13
2019-01-13T17:08:08.945Z,0.29
2019-01-13T17:10:38.654Z,0.38
2019-01-13T17:13:08.370Z,0.33
2019-01-13T17:15:38.738Z,0.24
2019-01-13T17:18:09.436Z,0.14
2019-01-13T17:20:39.448Z,0.14
2019-01-13T17:23:10.081Z,0.18
2019-01-13T17:25:39.789Z,0.16
2019-01-13T17:28:09.724Z,0.07
2019-01-13T17:30:40.376Z,0.07
2019-01-13T17:33:10.114Z,0.27
2019-01-13T17:35:39.770Z,0.24
2019-01-13T17:38:09.373Z,0.21
2019-01-13T17:40:39.073Z,0.29
2019-01-13T17:43:11.068Z,0.13
2019-01-13T17:45:40.609Z,0.16
2019-01-13T17:48:10.812Z,0.19
2019-01-13T17:50:40.641Z,0.17
2019-01-13T17:53:10.675Z,0.25
2019-01-13T17:55:40.428Z,0.30
2019-01-13T17:58:11.576Z,0.35
2019-01-13T18:01:00.808Z,0.40
2019-01-13T18:03:35.030Z,0.23
2019-01-13T18:06:04.557Z,0.33
2019-01-13T18:08:34.086Z,0.27
2019-01-13T18:11:03.558Z,0.27
2019-01-13T18:13:33.207Z,0.30
2019-01-13T18:16:02.710Z,0.39
2019-01-13T18:18:32.663Z,0.68
2019-01-13T18:21:02.258Z,0.53
2019-01-13T18:23:31.981Z,0.51
2019-01-13T18:26:01.498Z,0.36
2019-01-13T18:28:31.241Z,0.24
2019-01-13T18:31:01.042Z,0.26
2019-01-13T18:33:30.891Z,0.23
2019-01-13T18:36:00.404Z,0.15
2019-01-13T18:38:30.621Z,0.21
2019-01-13T18:41:00.349Z,0.20
2019-01-13T18:43:30.086Z,0.03
2019-01-13T18:46:00.422Z,0.15
2019-01-13T18:48:30.067Z,0.10
2019-01-13T18:50:59.582Z,0.10
2019-01-13T18:53:29.324Z,0.21
2019-01-13T18:55:58.817Z,0.10
2019-01-13T18:58:28.203Z,0.11
2019-01-13T19:00:57.547Z,0.00
2019-01-13T19:03:28.204Z,-0.04
2019-01-13T19:05:57.022Z,-0.02
2019-01-13T19:08:26.622Z,-0.11
2019-01-13T19:11:03.369Z,-0.09
2019-01-13T19:13:52.319Z,-0.06
2019-01-13T19:16:22.034Z,0.00
2019-01-13T19:18:51.818Z,0.01
2019-01-13T19:21:21.240Z,-0.10
2019-01-13T19:23:50.712Z,-0.17
2019-01-13T19:26:20.221Z,-0.16
2019-01-13T19:28:49.692Z,-0.17
2019-01-13T19:31:19.574Z,-0.29
2019-01-13T19:33:49.172Z,-0.28
2019-01-13T19:36:18.659Z,-0.38
2019-01-13T19:38:48.048Z,-0.47
2019-01-13T19:41:17.431Z,-0.48
2019-01-13T19:43:46.869Z,-0.45
2019-01-13T19:46:16.314Z,-0.53
2019-01-13T19:48:45.690Z,-0.53
2019-01-13T19:51:15.063Z,-0.44
2019-01-13T19:53:44.459Z,-0.65
2019-01-13T19:56:13.970Z,-0.70
2019-01-13T19:58:43.329Z,-0.54
2019-01-13T20:01:12.718Z,-0.55
2019-01-13T20:03:42.082Z,-0.60
2019-01-13T20:06:11.640Z,-0.61
2019-01-13T20:08:41.218Z,-0.75
2019-01-13T20:11:10.684Z,-0.75
2019-01-13T20:13:40.166Z,-0.70
2019-01-13T20:16:09.759Z,-0.84
2019-01-13T20:18:39.244Z,-0.83
2019-01-13T20:21:08.680Z,-0.88
2019-01-13T20:23:38.152Z,-0.94
2019-01-13T20:26:07.915Z,-0.95
2019-01-13T20:28:37.205Z,-1.14
2019-01-13T20:31:06.572Z,-1.18
2019-01-13T20:33:35.917Z,-1.29
2019-01-13T20:36:05.581Z,-1.20
2019-01-13T20:38:35.049Z,-1.22
2019-01-13T20:41:05.737Z,-1.23
2019-01-13T20:43:35.354Z,-1.28
2019-01-13T20:46:05.023Z,-1.35
2019-01-13T20:48:34.393Z,-1.45
2019-01-13T20:51:04.078Z,-1.39
2019-01-13T20:53:33.531Z,-1.35
2019-01-13T20:56:03.062Z,-1.42
2019-01-13T20:58:32.700Z,-1.41
2019-01-13T21:01:02.083Z,-1.46
2019-01-13T21:03:31.515Z,-1.58
2019-01-13T21:06:01.099Z,-1.62
2019-01-13T21:08:30.676Z,-1.52
2019-01-13T21:11:00.149Z,-1.47
2019-01-13T21:13:29.635Z,-1.78
2019-01-13T21:15:59.223Z,-1.64
2019-01-13T21:18:28.644Z,-1.82
2019-01-13T21:20:58.309Z,-1.80
2019-01-13T21:23:27.847Z,-1.94
2019-01-13T21:25:57.549Z,-1.85
2019-01-13T21:28:27.131Z,-1.94
2019-01-13T21:30:56.631Z,-1.97
2019-01-13T21:33:26.127Z,-2.08
2019-01-13T21:35:55.474Z,-2.09
2019-01-13T21:38:25.101Z,-2.08
2019-01-13T21:40:54.548Z,-2.12
2019-01-13T21:43:24.091Z,-2.14
2019-01-13T21:45:53.548Z,-2.11
2019-01-13T21:48:23.072Z,-2.02
2019-01-13T21:50:52.602Z,-2.07
2019-01-13T21:53:22.100Z,-2.18
2019-01-13T21:55:51.560Z,-2.30
2019-01-13T21:58:21.270Z,-2.17
2019-01-13T22:00:50.679Z,-2.06
2019-01-13T22:03:20.245Z,-2.12
2019-01-13T22:05:49.712Z,-2.20
2019-01-13T22:08:19.244Z,-2.21
2019-01-13T22:10:48.791Z,-2.18
2019-01-13T22:13:18.490Z,-2.11
2019-01-13T22:15:47.877Z,-2.13
2019-01-13T22:18:17.413Z,-2.20
2019-01-13T22:20:47.129Z,-2.24
2019-01-13T22:23:17.194Z,-2.35
2019-01-13T22:25:45.898Z,-2.52
2019-01-13T22:28:15.623Z,-2.51
2019-01-13T22:30:45.027Z,-2.49
2019-01-13T22:33:14.406Z,-2.56
2019-01-13T22:35:48.128Z,-2.47
2019-01-13T22:38:13.499Z,-2.59
2019-01-13T22:40:42.879Z,-2.57
2019-01-13T22:43:12.333Z,-2.67
2019-01-13T22:45:41.797Z,-2.96
2019-01-13T22:48:11.275Z,-2.92
2019-01-13T22:50:40.763Z,-2.86
2019-01-13T22:53:10.376Z,-2.74
2019-01-13T22:55:39.674Z,-2.80
2019-01-13T22:58:09.013Z,-2.93
2019-01-13T23:01:42.846Z,-2.96
2019-01-13T23:04:13.878Z,-2.84
2019-01-13T23:06:43.325Z,-2.96
2019-01-13T23:09:13.609Z,-2.90
2019-01-13T23:11:43.139Z,-2.86
2019-01-13T23:14:12.621Z,-2.84
2019-01-13T23:16:42.061Z,-2.84
2019-01-13T23:19:11.761Z,-2.72
2019-01-13T23:21:41.047Z,-2.74
2019-01-13T23:24:10.450Z,-2.79
2019-01-13T23:26:39.915Z,-3.12
2019-01-13T23:29:09.354Z,-3.28
2019-01-13T23:31:38.729Z,-3.19
2019-01-13T23:34:08.262Z,-3.13
2019-01-13T23:36:37.763Z,-3.15
2019-01-13T23:39:08.763Z,-3.48
2019-01-13T23:41:38.207Z,-3.35
2019-01-13T23:44:07.709Z,-3.36
2019-01-13T23:46:37.139Z,-3.26
2019-01-13T23:49:06.519Z,-3.43
2019-01-13T23:51:35.944Z,-3.58
2019-01-13T23:54:05.495Z,-3.77
2019-01-13T23:56:34.854Z,-3.96
2019-01-13T23:59:04.218Z,-4.08
